LTFJ/SAW METAR and TAF weather

Enter ICAO airport designator
Station Type Date Time Source
LTFJ METAR 2020/07/10 00:20 UTC NOAA

LTFJ 100020Z 05007KT 9999 SCT033 19/15 Q1017 NOSIG


Station Type Date Time Source
LTFJ Decoded METAR 2020/07/10 00:20 UTC NOAA

Istanbul / Sabiha Gokcen, Turkey (LTFJ) 40-53-55N 029-18-33E
Jul 09, 2020 - 08:20 PM EDT / 2020.07.10 0020 UTC
Wind: from the NE (050 degrees) at 8 MPH (7 KT):0
Visibility: greater than 7 mile(s):0
Sky conditions: partly cloudy
Temperature: 66 F (19 C)
Dew Point: 59 F (15 C)
Relative Humidity: 77%
Pressure (altimeter): 30.03 in. Hg (1017 hPa)
ob: LTFJ 100020Z 05007KT 9999 SCT033 19/15 Q1017 NOSIG
cycle: 0

Station Type Date Time Source
LTFJ TAF 2020/07/09 18:03 UTC NOAA

TAF LTFJ 091640Z 0918/1018 05019KT 9999 SCT035
BECMG 0918/0921 05009KT
BECMG 1005/1008 05019KT
TEMPO 1011/1015 05020G30KT

Example: see airport list